Duke I — 3FBO — position and weather

sailwx.info

Track history (hours):
 
Tides and Currents Weather Stations Pressure Air Temp Water Temp Dewpoint Dewpoint Depression Visibility Wind Speed Wind Dir Waves Ship Positions

Duke I

Last reported at 2018-Jun-15 19:35 UTC. Time now 2018-Jun-18 05:36 UTC.
Position N 32°25' E 030°20'.

Length 175 m; draft 7.1 m.

Type: Ship (hazmat cat D). MMSI: 352642000.

Date/timePositionNaut miles runAvg speedWind from/ knotsBaromVisibWave heightAir tempDewpointWater temp
2018-Jun-15 19:35N 32°25' E 030°20'413.0
2018-Jun-15 19:19N 32°23' E 030°24'3513.0
2018-Jun-15 16:37N 32°10' E 031°02'312.8
2018-Jun-15 16:23N 32°08' E 031°06'512.8
2018-Jun-15 16:00N 32°06' E 031°11'1713.0
2018-Jun-15 14:43N 31°60' E 031°29'2312.8
2018-Jun-15 12:54N 31°50' E 031°54'512.5
2018-Jun-15 12:30N 31°48' E 031°59'1412.2
2018-Jun-15 11:20N 31°42' E 032°14'5 0.4
2018-Jun-14 22:22N 31°39' E 032°20'0 0.0
2018-Jun-14 21:53N 31°39' E 032°20'0 0.0
2018-Jun-14 19:25N 31°39' E 032°20'0 0.0
2018-Jun-14 19:00N 31°39' E 032°20'27 1.1
2018-Jun-13 19:03N 31°58' E 032°42'114.3
2018-Jun-13 19:00N 31°58' E 032°42'914.2
2018-Jun-13 18:24N 32°06' E 032°47'  
2018-Jun-08 17:00N 35°48' E 031°11'712.6
2018-Jun-08 16:29N 35°48' E 031°02'812.5
2018-Jun-08 15:49N 35°48' E 030°52'412.5
2018-Jun-08 15:30N 35°48' E 030°47'912.4
2018-Jun-08 14:45N 35°48' E 030°36'312.4
2018-Jun-08 14:30N 35°48' E 030°32'612.4
2018-Jun-08 14:00N 35°48' E 030°24'612.5
2018-Jun-08 13:30N 35°48' E 030°17'612.6
2018-Jun-08 13:00N 35°48' E 030°09'712.7
2018-Jun-08 12:27N 35°48' E 030°00'612.6
2018-Jun-08 12:00N 35°48' E 029°53'812.5
2018-Jun-08 11:23N 35°48' E 029°44'20611.0
2018-Jun-07 16:33N 37°23' E 025°55'012.5
2018-Jun-07 16:31N 37°23' E 025°55'612.7
2018-Jun-07 16:00N 37°26' E 025°48'612.6
2018-Jun-07 15:30N 37°31' E 025°43'612.8
2018-Jun-07 15:00N 37°37' E 025°39'612.5
2018-Jun-07 14:30N 37°43' E 025°37'712.5
2018-Jun-07 13:59N 37°49' E 025°35'11912.2
2018-Jun-07 04:14N 39°48' E 025°42'312.8
2018-Jun-07 03:59N 39°50' E 025°45'  
Track history (hours):
 
Tides and Currents Weather Stations Pressure Air Temp Water Temp Dewpoint Dewpoint Depression Visibility Wind Speed Wind Dir Waves Ship Positions

Duke I

Last reported at 2018-Jun-15 19:35 UTC. Time now 2018-Jun-18 05:36 UTC.
Position N 32°25' E 030°20'.

Length 175 m; draft 7.1 m.

Type: Ship (hazmat cat D). MMSI: 352642000.

Date/timePositionNaut miles runAvg speedWind from/ knotsBaromVisibWave heightAir tempDewpointWater temp
2018-Jun-15 19:35N 32°25' E 030°20'413.0
2018-Jun-15 19:19N 32°23' E 030°24'3513.0
2018-Jun-15 16:37N 32°10' E 031°02'312.8
2018-Jun-15 16:23N 32°08' E 031°06'512.8
2018-Jun-15 16:00N 32°06' E 031°11'1713.0
2018-Jun-15 14:43N 31°60' E 031°29'2312.8
2018-Jun-15 12:54N 31°50' E 031°54'512.5
2018-Jun-15 12:30N 31°48' E 031°59'1412.2
2018-Jun-15 11:20N 31°42' E 032°14'5 0.4
2018-Jun-14 22:22N 31°39' E 032°20'0 0.0
2018-Jun-14 21:53N 31°39' E 032°20'0 0.0
2018-Jun-14 19:25N 31°39' E 032°20'0 0.0
2018-Jun-14 19:00N 31°39' E 032°20'27 1.1
2018-Jun-13 19:03N 31°58' E 032°42'114.3
2018-Jun-13 19:00N 31°58' E 032°42'914.2
2018-Jun-13 18:24N 32°06' E 032°47'  
2018-Jun-08 17:00N 35°48' E 031°11'712.6
2018-Jun-08 16:29N 35°48' E 031°02'812.5
2018-Jun-08 15:49N 35°48' E 030°52'412.5
2018-Jun-08 15:30N 35°48' E 030°47'912.4
2018-Jun-08 14:45N 35°48' E 030°36'312.4
2018-Jun-08 14:30N 35°48' E 030°32'612.4
2018-Jun-08 14:00N 35°48' E 030°24'612.5
2018-Jun-08 13:30N 35°48' E 030°17'612.6
2018-Jun-08 13:00N 35°48' E 030°09'712.7
2018-Jun-08 12:27N 35°48' E 030°00'612.6
2018-Jun-08 12:00N 35°48' E 029°53'812.5
2018-Jun-08 11:23N 35°48' E 029°44'20611.0
2018-Jun-07 16:33N 37°23' E 025°55'012.5
2018-Jun-07 16:31N 37°23' E 025°55'612.7
2018-Jun-07 16:00N 37°26' E 025°48'612.6
2018-Jun-07 15:30N 37°31' E 025°43'612.8
2018-Jun-07 15:00N 37°37' E 025°39'612.5
2018-Jun-07 14:30N 37°43' E 025°37'712.5
2018-Jun-07 13:59N 37°49' E 025°35'11912.2
2018-Jun-07 04:14N 39°48' E 025°42'312.8
2018-Jun-07 03:59N 39°50' E 025°45'  

Dump ship's entire track history